createdAt,value
2022-10-07T00:00:59.891Z,12.85
2022-10-07T00:03:36.118Z,13.13
2022-10-07T00:06:11.146Z,12.40
2022-10-07T00:08:39.732Z,11.07
2022-10-07T00:11:08.916Z,9.88
2022-10-07T00:13:38.726Z,9.77
2022-10-07T00:16:07.999Z,13.40
2022-10-07T00:18:36.906Z,10.02
2022-10-07T00:21:05.684Z,10.88
2022-10-07T00:23:33.477Z,11.63
2022-10-07T00:26:02.641Z,9.68
2022-10-07T00:28:30.775Z,9.50
2022-10-07T00:31:03.021Z,12.20
2022-10-07T00:33:34.179Z,14.00
2022-10-07T00:36:02.090Z,8.18
2022-10-07T00:38:29.670Z,11.05
2022-10-07T00:40:57.268Z,9.88
2022-10-07T00:43:31.943Z,14.98
2022-10-07T00:46:01.366Z,9.38
2022-10-07T00:48:31.384Z,10.55
2022-10-07T00:51:00.161Z,14.43
2022-10-07T00:53:29.817Z,12.32
2022-10-07T00:56:01.639Z,16.45
2022-10-07T00:58:33.883Z,9.40
2022-10-07T01:01:02.044Z,12.25
2022-10-07T01:03:30.035Z,21.60
2022-10-07T01:05:57.629Z,16.60
2022-10-07T01:08:25.700Z,12.65
2022-10-07T01:11:13.964Z,13.27
2022-10-07T01:13:48.127Z,11.90
2022-10-07T01:16:34.453Z,16.25
2022-10-07T01:19:03.903Z,12.95
2022-10-07T01:21:38.439Z,13.48
2022-10-07T01:24:15.992Z,17.30
2022-10-07T01:27:01.836Z,16.55
2022-10-07T01:29:36.228Z,15.50
2022-10-07T01:32:07.213Z,15.15
2022-10-07T01:34:36.687Z,10.48
2022-10-07T01:37:06.089Z,12.63
2022-10-07T01:39:38.179Z,14.38
2022-10-07T01:42:06.166Z,11.57
2022-10-07T01:44:34.048Z,18.92
2022-10-07T01:47:02.049Z,19.05
2022-10-07T01:49:29.839Z,14.63
2022-10-07T01:52:08.738Z,16.88
2022-10-07T01:54:55.067Z,17.60
2022-10-07T01:57:44.936Z,14.60
2022-10-07T02:00:13.623Z,13.20
2022-10-07T02:02:49.453Z,16.70
2022-10-07T02:05:24.822Z,16.83
2022-10-07T02:08:12.620Z,15.32
2022-10-07T02:10:49.645Z,15.70
2022-10-07T02:13:34.212Z,19.38
2022-10-07T02:16:16.176Z,18.80
2022-10-07T02:18:48.089Z,15.50
2022-10-07T02:21:17.227Z,18.48
2022-10-07T02:23:46.102Z,14.45
2022-10-07T02:26:15.456Z,16.35
2022-10-07T02:28:44.137Z,18.00
2022-10-07T02:31:17.820Z,18.83
2022-10-07T02:33:47.224Z,15.20
2022-10-07T02:36:20.137Z,20.80
2022-10-07T02:38:48.056Z,14.07
2022-10-07T02:41:31.807Z,17.33
2022-10-07T02:46:39.404Z,17.05
2022-10-07T02:49:08.447Z,19.50
2022-10-07T02:52:15.037Z,18.13
2022-10-07T02:54:59.933Z,17.38
2022-10-07T02:57:31.461Z,14.98
2022-10-07T03:00:01.133Z,17.75
2022-10-07T03:02:40.799Z,15.85
2022-10-07T03:05:09.930Z,18.05
2022-10-07T03:07:37.715Z,21.55
2022-10-07T03:10:08.842Z,14.68
2022-10-07T03:12:37.259Z,14.48
2022-10-07T03:15:05.606Z,18.20
2022-10-07T03:17:33.409Z,17.85
2022-10-07T03:20:01.406Z,21.75
2022-10-07T03:22:29.522Z,22.73
2022-10-07T03:24:57.187Z,20.63
2022-10-07T03:27:25.254Z,22.90
2022-10-07T03:29:55.154Z,20.73
2022-10-07T03:32:22.989Z,24.13
2022-10-07T03:34:52.791Z,25.10
2022-10-07T03:37:21.385Z,19.10
2022-10-07T03:39:49.534Z,19.58
2022-10-07T03:42:17.882Z,19.02
2022-10-07T03:44:46.300Z,20.77
2022-10-07T03:47:14.171Z,22.40
2022-10-07T03:49:42.242Z,20.85
2022-10-07T03:52:11.294Z,29.35
2022-10-07T03:54:38.852Z,25.67
2022-10-07T03:57:30.016Z,15.88
2022-10-07T04:00:00.280Z,27.38
2022-10-07T04:02:28.494Z,19.60
2022-10-07T04:04:57.139Z,17.33
2022-10-07T04:07:25.481Z,20.90
2022-10-07T04:09:53.150Z,21.33
2022-10-07T04:12:21.156Z,21.65
2022-10-07T04:14:49.129Z,20.10
2022-10-07T04:17:19.719Z,21.58
2022-10-07T04:19:47.407Z,16.13
2022-10-07T04:22:17.198Z,19.10
2022-10-07T04:25:04.825Z,16.85
2022-10-07T04:27:58.127Z,18.10
2022-10-07T04:30:23.454Z,16.05
2022-10-07T04:32:51.664Z,22.02
2022-10-07T04:35:22.689Z,20.48
2022-10-07T04:37:52.247Z,22.77
2022-10-07T04:40:21.392Z,17.90
2022-10-07T04:43:08.369Z,16.73
2022-10-07T04:45:37.559Z,17.73
2022-10-07T04:48:07.083Z,32.22
2022-10-07T04:50:39.021Z,22.45
2022-10-07T04:53:08.879Z,24.80
2022-10-07T04:55:38.933Z,22.63
2022-10-07T04:58:07.375Z,23.83
2022-10-07T05:00:35.964Z,31.65
2022-10-07T05:03:04.130Z,25.48
2022-10-07T05:05:32.056Z,18.80
2022-10-07T05:07:59.647Z,26.98
2022-10-07T05:10:29.356Z,26.48
2022-10-07T05:12:57.413Z,26.13
2022-10-07T05:15:25.547Z,21.65
2022-10-07T05:17:55.891Z,21.95
2022-10-07T05:20:26.702Z,20.20
2022-10-07T05:22:55.628Z,16.42
2022-10-07T05:25:23.448Z,23.52
2022-10-07T05:27:54.045Z,21.73
2022-10-07T05:30:22.015Z,25.70
2022-10-07T05:32:51.598Z,18.70
2022-10-07T05:35:19.210Z,18.48
2022-10-07T05:37:50.968Z,17.50
2022-10-07T05:40:20.175Z,21.88
2022-10-07T05:42:48.312Z,19.33
2022-10-07T05:45:16.414Z,16.17
2022-10-07T05:47:44.609Z,15.25
2022-10-07T05:50:12.800Z,19.83
2022-10-07T05:52:42.515Z,15.85
2022-10-07T05:55:10.399Z,19.30
2022-10-07T05:57:39.939Z,13.32
2022-10-07T06:00:09.459Z,13.80
2022-10-07T06:02:47.304Z,18.33
2022-10-07T06:05:15.569Z,13.23
2022-10-07T06:07:43.711Z,13.77
2022-10-07T06:10:30.039Z,12.80
2022-10-07T06:13:10.021Z,16.85
2022-10-07T06:15:40.707Z,17.33
2022-10-07T06:18:08.895Z,23.70
2022-10-07T06:20:36.566Z,10.98
2022-10-07T06:23:06.977Z,16.17
2022-10-07T06:25:34.865Z,14.23
2022-10-07T06:28:03.205Z,11.77
2022-10-07T06:30:31.201Z,10.70
2022-10-07T06:33:02.180Z,13.10
2022-10-07T06:35:30.300Z,11.43
2022-10-07T06:37:58.796Z,10.95
2022-10-07T06:40:27.193Z,12.85
2022-10-07T06:42:55.042Z,13.90
2022-10-07T06:45:49.216Z,13.05
2022-10-07T06:48:17.346Z,11.82
2022-10-07T06:50:52.078Z,15.93
2022-10-07T06:53:23.956Z,8.65
2022-10-07T06:55:54.680Z,10.95
2022-10-07T06:58:22.533Z,8.30
2022-10-07T07:00:51.994Z,13.55
2022-10-07T07:03:23.272Z,10.90
2022-10-07T07:05:54.533Z,10.60
2022-10-07T07:08:29.059Z,17.35
2022-10-07T07:10:56.752Z,13.25
2022-10-07T07:13:25.698Z,13.60
2022-10-07T07:15:57.849Z,15.02
2022-10-07T07:18:27.322Z,10.23
2022-10-07T07:20:55.090Z,10.80
2022-10-07T07:23:23.815Z,13.00
2022-10-07T07:25:51.603Z,10.82
2022-10-07T07:28:19.539Z,14.57
2022-10-07T07:30:49.204Z,8.57
2022-10-07T07:33:17.261Z,8.93
2022-10-07T07:35:44.926Z,9.77
2022-10-07T07:38:12.975Z,7.63
2022-10-07T07:40:40.683Z,6.50
2022-10-07T07:43:09.377Z,7.45
2022-10-07T07:45:37.204Z,9.85
2022-10-07T07:48:05.815Z,10.50
2022-10-07T07:50:36.345Z,8.23
2022-10-07T07:53:05.747Z,9.88
2022-10-07T07:55:33.764Z,9.15
2022-10-07T07:58:01.857Z,9.57
2022-10-07T08:00:29.895Z,7.28
2022-10-07T08:03:04.202Z,13.10
2022-10-07T08:05:34.967Z,8.35
2022-10-07T08:08:02.848Z,10.95
2022-10-07T08:10:30.971Z,10.52
2022-10-07T08:12:58.724Z,6.35
2022-10-07T08:15:26.626Z,8.80
2022-10-07T08:17:54.226Z,8.38
2022-10-07T08:20:22.655Z,7.15
2022-10-07T08:22:53.576Z,9.50
2022-10-07T08:25:25.358Z,8.57
2022-10-07T08:27:52.969Z,7.75
2022-10-07T08:30:20.813Z,6.90
2022-10-07T08:32:49.291Z,7.78
2022-10-07T08:35:16.948Z,10.60
2022-10-07T08:37:44.686Z,10.07
2022-10-07T08:40:17.381Z,6.55
2022-10-07T08:42:46.831Z,7.38
2022-10-07T08:45:17.762Z,8.90
2022-10-07T08:47:48.544Z,7.03
2022-10-07T08:50:19.479Z,13.05
2022-10-07T08:52:59.322Z,9.70
2022-10-07T08:55:32.208Z,11.40
2022-10-07T08:58:11.741Z,8.95
2022-10-07T09:01:00.120Z,12.27
2022-10-07T09:03:36.764Z,9.90
2022-10-07T09:06:09.181Z,12.65
2022-10-07T09:08:40.311Z,11.20
2022-10-07T09:11:20.076Z,8.45
2022-10-07T09:13:53.399Z,9.20
2022-10-07T09:16:29.833Z,10.73
2022-10-07T09:19:02.379Z,11.90
2022-10-07T09:21:37.364Z,10.75
2022-10-07T09:24:22.988Z,10.15
2022-10-07T09:26:55.219Z,9.10
2022-10-07T09:29:23.979Z,11.82
2022-10-07T09:31:53.547Z,9.45
2022-10-07T09:34:25.736Z,8.55
2022-10-07T09:37:11.352Z,9.32
2022-10-07T09:39:39.532Z,9.60
2022-10-07T09:42:19.067Z,9.52
2022-10-07T09:44:54.346Z,8.27
2022-10-07T09:47:24.320Z,7.07
2022-10-07T09:49:56.972Z,6.32
2022-10-07T09:52:25.508Z,5.50
2022-10-07T09:54:54.886Z,33.47
2022-10-07T09:57:36.067Z,6.10
2022-10-07T10:00:13.139Z,6.20
2022-10-07T10:02:42.033Z,8.00
2022-10-07T10:05:20.952Z,6.20
2022-10-07T10:07:49.143Z,6.93
2022-10-07T10:10:18.190Z,5.63
2022-10-07T10:12:47.252Z,7.50
2022-10-07T10:15:27.471Z,5.70
2022-10-07T10:17:57.065Z,4.30
2022-10-07T10:20:24.827Z,5.43
2022-10-07T10:22:52.935Z,2.95
2022-10-07T10:25:44.985Z,2.80
2022-10-07T10:28:22.680Z,8.73
2022-10-07T10:30:58.273Z,5.22
2022-10-07T10:33:40.594Z,5.60
2022-10-07T10:36:18.518Z,4.13
2022-10-07T10:39:01.606Z,7.13
2022-10-07T10:41:39.858Z,3.75
2022-10-07T10:44:24.702Z,4.80
2022-10-07T10:47:01.358Z,4.90
2022-10-07T10:49:29.373Z,4.43
2022-10-07T10:51:56.996Z,6.60
2022-10-07T10:54:46.525Z,5.35
2022-10-07T10:57:23.292Z,5.65
2022-10-07T11:00:12.705Z,6.18
2022-10-07T11:02:43.585Z,5.05
2022-10-07T11:07:48.332Z,4.03
2022-10-07T11:10:22.055Z,5.50
2022-10-07T11:12:58.284Z,5.38
2022-10-07T11:15:26.050Z,3.65
2022-10-07T11:17:55.167Z,5.50
2022-10-07T11:20:32.115Z,4.97
2022-10-07T11:23:03.184Z,5.88
2022-10-07T11:28:02.497Z,4.00
2022-10-07T11:30:35.272Z,5.25
2022-10-07T11:33:09.094Z,4.60
2022-10-07T11:35:38.225Z,4.15
2022-10-07T11:38:15.108Z,6.85
2022-10-07T11:41:02.966Z,4.78
2022-10-07T11:43:34.205Z,5.30
2022-10-07T11:46:10.542Z,5.40
2022-10-07T11:48:40.909Z,5.47
2022-10-07T11:51:10.312Z,6.07
2022-10-07T11:53:39.416Z,5.10
2022-10-07T11:56:20.428Z,4.22
2022-10-07T11:58:56.570Z,6.82
2022-10-07T12:01:30.401Z,5.47
2022-10-07T12:04:24.818Z,4.32
2022-10-07T12:07:11.589Z,4.28
2022-10-07T12:09:55.430Z,4.90
2022-10-07T12:12:23.772Z,6.95
2022-10-07T12:15:00.479Z,7.93
2022-10-07T12:17:30.195Z,9.95
2022-10-07T12:20:17.163Z,5.57
2022-10-07T12:22:45.001Z,6.80
2022-10-07T12:25:29.285Z,4.15
2022-10-07T12:27:57.801Z,5.63
2022-10-07T12:30:39.538Z,7.88
2022-10-07T12:33:15.260Z,6.47
2022-10-07T12:35:45.137Z,3.80
2022-10-07T12:38:16.774Z,7.38
2022-10-07T12:40:48.894Z,6.40
2022-10-07T12:43:25.831Z,6.68
2022-10-07T12:45:54.312Z,7.65
2022-10-07T12:48:24.843Z,6.07
2022-10-07T12:50:54.955Z,4.15
2022-10-07T12:53:24.626Z,8.82
2022-10-07T12:55:54.572Z,8.30
2022-10-07T12:59:01.071Z,5.57
2022-10-07T13:01:45.819Z,6.32
2022-10-07T13:04:28.837Z,6.07
2022-10-07T13:06:59.412Z,9.00
2022-10-07T13:09:32.735Z,4.97
2022-10-07T13:12:06.887Z,5.13
2022-10-07T13:14:38.136Z,7.93
2022-10-07T13:17:20.625Z,6.97
2022-10-07T13:20:02.698Z,5.43
2022-10-07T13:22:31.434Z,5.15
2022-10-07T13:25:02.227Z,6.75
2022-10-07T13:27:31.924Z,4.70
2022-10-07T13:30:01.602Z,4.65
2022-10-07T13:32:34.704Z,8.02
2022-10-07T13:35:22.427Z,5.72
2022-10-07T13:37:50.191Z,8.85
2022-10-07T13:40:35.181Z,8.70
2022-10-07T13:43:07.228Z,7.85
2022-10-07T13:45:45.088Z,5.75
2022-10-07T13:48:17.205Z,5.32
2022-10-07T13:50:45.389Z,7.55
2022-10-07T13:53:32.750Z,7.65
2022-10-07T13:56:06.567Z,5.80
2022-10-07T13:58:34.591Z,10.13
2022-10-07T14:01:04.453Z,10.45
2022-10-07T14:03:32.285Z,6.15
2022-10-07T14:06:01.502Z,6.70
2022-10-07T14:08:30.488Z,5.88
2022-10-07T14:11:09.293Z,6.53
2022-10-07T14:13:37.920Z,7.22
2022-10-07T14:16:05.632Z,5.82
2022-10-07T14:18:33.502Z,7.38
2022-10-07T14:21:17.097Z,7.47
2022-10-07T14:23:47.024Z,6.43
2022-10-07T14:26:16.363Z,5.43
2022-10-07T14:28:44.385Z,8.27
2022-10-07T14:31:34.586Z,9.85
2022-10-07T14:34:37.455Z,8.35
2022-10-07T14:37:11.484Z,15.73
2022-10-07T14:39:40.409Z,10.32
2022-10-07T14:42:11.819Z,7.80
2022-10-07T14:44:41.462Z,10.45
2022-10-07T14:47:13.591Z,9.88
2022-10-07T14:49:42.567Z,9.07
2022-10-07T14:52:34.686Z,25.58
2022-10-07T14:55:07.563Z,13.40
2022-10-07T14:57:35.173Z,13.57
2022-10-07T15:00:05.308Z,11.55
2022-10-07T15:02:33.503Z,8.32
2022-10-07T15:05:02.480Z,8.38
2022-10-07T15:07:31.916Z,11.48
2022-10-07T15:09:59.520Z,10.65
2022-10-07T15:12:28.988Z,11.45
2022-10-07T15:14:56.777Z,14.02
2022-10-07T15:17:24.438Z,12.32
2022-10-07T15:19:53.045Z,8.15
2022-10-07T15:22:20.686Z,8.13
2022-10-07T15:24:48.805Z,7.00
2022-10-07T15:27:19.217Z,13.05
2022-10-07T15:29:47.030Z,15.95
2022-10-07T15:32:14.966Z,16.20
2022-10-07T15:34:42.513Z,17.00
2022-10-07T15:37:10.347Z,32.30
2022-10-07T15:39:39.853Z,38.38
2022-10-07T15:42:07.930Z,26.33
2022-10-07T15:44:36.445Z,19.13
2022-10-07T15:47:04.062Z,20.55
2022-10-07T15:49:32.696Z,15.45
2022-10-07T15:52:01.398Z,15.55
2022-10-07T15:54:29.341Z,12.60
2022-10-07T15:56:57.128Z,15.05
2022-10-07T15:59:24.843Z,14.80
2022-10-07T16:01:52.619Z,14.85
2022-10-07T16:04:20.299Z,11.15
2022-10-07T16:06:54.005Z,15.80
2022-10-07T16:09:22.574Z,17.08
2022-10-07T16:11:51.035Z,17.40
2022-10-07T16:14:18.655Z,16.73
2022-10-07T16:16:46.421Z,14.32
2022-10-07T16:19:14.293Z,16.23
2022-10-07T16:21:42.740Z,13.55
2022-10-07T16:24:20.967Z,20.88
2022-10-07T16:26:50.700Z,17.92
2022-10-07T16:29:38.324Z,21.30
2022-10-07T16:32:10.735Z,28.63
2022-10-07T16:34:39.392Z,32.90
2022-10-07T16:37:07.278Z,34.90
2022-10-07T16:39:34.982Z,58.97
2022-10-07T16:42:02.628Z,50.90
2022-10-07T16:44:30.492Z,51.30
2022-10-07T16:46:59.507Z,50.58
2022-10-07T16:49:29.345Z,41.97
2022-10-07T16:51:57.579Z,39.05
2022-10-07T16:54:25.360Z,20.73
2022-10-07T16:56:53.893Z,28.38
2022-10-07T16:59:23.616Z,17.83
2022-10-07T17:01:56.178Z,13.90
2022-10-07T17:04:25.155Z,18.20
2022-10-07T17:06:53.524Z,16.95
2022-10-07T17:09:24.404Z,21.30
2022-10-07T17:11:52.233Z,24.52
2022-10-07T17:14:21.084Z,28.42
2022-10-07T17:16:50.662Z,25.15
2022-10-07T17:19:19.311Z,34.75
2022-10-07T17:21:47.667Z,49.22
2022-10-07T17:24:17.616Z,64.68
2022-10-07T17:26:45.754Z,63.63
2022-10-07T17:29:14.709Z,64.93
2022-10-07T17:31:43.604Z,51.88
2022-10-07T17:34:12.008Z,41.40
2022-10-07T17:36:40.033Z,43.25
2022-10-07T17:39:08.312Z,38.50
2022-10-07T17:41:37.030Z,30.98
2022-10-07T17:44:09.259Z,27.85
2022-10-07T17:46:39.189Z,20.33
2022-10-07T17:49:07.844Z,22.17
2022-10-07T17:51:37.291Z,22.58
2022-10-07T17:54:05.796Z,21.27
2022-10-07T17:56:34.304Z,21.75
2022-10-07T17:59:02.627Z,25.70
2022-10-07T18:01:32.903Z,18.30
2022-10-07T18:04:01.792Z,19.75
2022-10-07T18:06:30.764Z,21.85
2022-10-07T18:08:59.126Z,17.50
2022-10-07T18:11:47.164Z,20.65
2022-10-07T18:14:41.758Z,21.90
2022-10-07T18:17:10.321Z,17.00
2022-10-07T18:19:39.793Z,24.10
2022-10-07T18:22:08.130Z,24.98
2022-10-07T18:24:35.990Z,21.65
2022-10-07T18:27:03.890Z,21.45
2022-10-07T18:29:32.934Z,22.17
2022-10-07T18:32:01.268Z,21.60
2022-10-07T18:34:29.874Z,14.43
2022-10-07T18:36:57.546Z,14.75
2022-10-07T18:39:27.585Z,14.43
2022-10-07T18:41:55.585Z,15.45
2022-10-07T18:44:23.395Z,17.60
2022-10-07T18:46:51.312Z,17.80
2022-10-07T18:49:18.874Z,21.27
2022-10-07T18:51:47.310Z,20.20
2022-10-07T18:54:15.493Z,21.80
2022-10-07T18:56:43.178Z,20.85
2022-10-07T18:59:13.174Z,28.05
2022-10-07T19:01:41.392Z,21.10
2022-10-07T19:04:10.044Z,26.08
2022-10-07T19:06:39.421Z,24.38
2022-10-07T19:09:08.610Z,26.20
2022-10-07T19:11:36.380Z,32.45
2022-10-07T19:14:04.014Z,60.05
2022-10-07T19:16:36.851Z,71.18
2022-10-07T19:19:09.268Z,59.90
2022-10-07T19:21:37.158Z,55.45
2022-10-07T19:24:05.218Z,43.33
2022-10-07T19:26:35.345Z,25.05
2022-10-07T19:29:03.810Z,31.02
2022-10-07T19:31:32.810Z,24.65
2022-10-07T19:34:02.337Z,28.38
2022-10-07T19:36:31.169Z,30.98
2022-10-07T19:38:59.155Z,31.95
2022-10-07T19:41:28.593Z,32.42
2022-10-07T19:43:56.889Z,27.48
2022-10-07T19:46:26.497Z,32.15
2022-10-07T19:48:56.833Z,27.60
2022-10-07T19:51:25.986Z,30.92
2022-10-07T19:53:53.861Z,28.63
2022-10-07T19:56:22.722Z,27.23
2022-10-07T19:58:54.429Z,29.88
2022-10-07T20:01:23.382Z,27.42
2022-10-07T20:03:56.491Z,24.35
2022-10-07T20:06:25.225Z,22.80
2022-10-07T20:08:53.083Z,28.60
2022-10-07T20:11:21.044Z,24.55
2022-10-07T20:13:48.644Z,28.02
2022-10-07T20:16:20.131Z,20.65
2022-10-07T20:18:49.795Z,19.77
2022-10-07T20:21:19.145Z,20.67
2022-10-07T20:23:50.627Z,22.05
2022-10-07T20:26:19.739Z,20.50
2022-10-07T20:28:50.492Z,18.95
2022-10-07T20:31:20.452Z,20.52
2022-10-07T20:33:49.347Z,21.88
2022-10-07T20:36:18.817Z,18.95
2022-10-07T20:39:05.712Z,20.08
2022-10-07T20:41:52.182Z,20.77
2022-10-07T20:44:20.170Z,19.02
2022-10-07T20:46:51.694Z,19.30
2022-10-07T20:49:23.134Z,19.10
2022-10-07T20:51:51.905Z,16.98
2022-10-07T20:54:23.742Z,16.20
2022-10-07T20:56:51.937Z,18.73
2022-10-07T20:59:19.701Z,16.60
2022-10-07T21:01:48.218Z,19.20
2022-10-07T21:04:16.306Z,21.20
2022-10-07T21:06:44.362Z,18.77
2022-10-07T21:09:14.813Z,16.63
2022-10-07T21:11:42.475Z,17.67
2022-10-07T21:14:11.533Z,23.30
2022-10-07T21:16:39.792Z,19.00
2022-10-07T21:19:07.901Z,15.80
2022-10-07T21:21:36.303Z,17.58
2022-10-07T21:24:04.393Z,16.90
2022-10-07T21:26:33.631Z,17.60
2022-10-07T21:29:01.542Z,15.32
2022-10-07T21:31:31.331Z,16.27
2022-10-07T21:34:01.606Z,14.40
2022-10-07T21:36:29.618Z,14.25
2022-10-07T21:38:58.391Z,16.00
2022-10-07T21:41:27.420Z,20.80
2022-10-07T21:43:57.473Z,12.73
2022-10-07T21:46:26.179Z,17.85
2022-10-07T21:48:55.121Z,17.65
2022-10-07T21:51:23.271Z,14.68
2022-10-07T21:53:51.491Z,16.65
2022-10-07T21:56:19.184Z,21.08
2022-10-07T21:58:49.253Z,14.25
2022-10-07T22:01:17.943Z,15.32
2022-10-07T22:03:46.353Z,16.95
2022-10-07T22:06:18.063Z,14.05
2022-10-07T22:08:46.349Z,16.30
2022-10-07T22:11:15.218Z,17.50
2022-10-07T22:13:44.493Z,18.23
2022-10-07T22:16:17.096Z,16.20
2022-10-07T22:18:46.127Z,12.73
2022-10-07T22:21:15.384Z,14.77
2022-10-07T22:23:43.507Z,18.88
2022-10-07T22:26:12.699Z,15.00
2022-10-07T22:28:40.730Z,13.43
2022-10-07T22:31:09.867Z,13.82
2022-10-07T22:33:38.461Z,12.93
2022-10-07T22:36:07.047Z,16.40
2022-10-07T22:38:37.623Z,13.48
2022-10-07T22:41:06.489Z,14.27
2022-10-07T22:43:37.420Z,15.27
2022-10-07T22:46:06.244Z,12.67
2022-10-07T22:48:34.702Z,15.15
2022-10-07T22:51:06.253Z,12.00
2022-10-07T22:53:34.909Z,13.60
2022-10-07T22:56:07.152Z,11.82
2022-10-07T22:58:35.184Z,11.88
2022-10-07T23:01:13.300Z,10.77
2022-10-07T23:03:43.893Z,9.32
2022-10-07T23:06:12.895Z,9.45
2022-10-07T23:08:40.683Z,11.98
2022-10-07T23:11:09.128Z,9.40
2022-10-07T23:13:37.560Z,11.70
2022-10-07T23:16:06.844Z,10.93
2022-10-07T23:18:34.650Z,9.50
2022-10-07T23:21:03.432Z,10.10
2022-10-07T23:23:30.959Z,8.98
2022-10-07T23:26:00.112Z,9.95
2022-10-07T23:28:27.714Z,12.77
2022-10-07T23:30:56.333Z,11.85
2022-10-07T23:33:24.480Z,8.73
2022-10-07T23:35:56.104Z,8.50
2022-10-07T23:40:54.735Z,12.82
2022-10-07T23:43:23.146Z,10.52
2022-10-07T23:45:51.130Z,11.45
2022-10-07T23:48:19.286Z,10.75
2022-10-07T23:50:50.815Z,10.88
2022-10-07T23:53:18.866Z,15.60
2022-10-07T23:55:47.777Z,13.43
2022-10-07T23:58:15.791Z,13.13
